createdAt,value
2023-05-15T00:02:47.101Z,4.4
2023-05-15T00:07:52.915Z,4.4
2023-05-15T00:12:59.027Z,4.3
2023-05-15T00:18:05.158Z,4.2
2023-05-15T00:23:11.214Z,4.3
2023-05-15T00:28:17.297Z,4.3
2023-05-15T00:33:23.410Z,4.3
2023-05-15T00:38:29.544Z,4.2
2023-05-15T00:43:35.852Z,4.2
2023-05-15T00:48:41.733Z,3.9
2023-05-15T00:53:47.838Z,3.8
2023-05-15T00:58:54.063Z,3.7
2023-05-15T01:04:00.162Z,3.6
2023-05-15T01:09:06.100Z,3.5
2023-05-15T01:14:12.196Z,3.3
2023-05-15T01:19:18.286Z,3.3
2023-05-15T01:24:24.639Z,3.2
2023-05-15T01:29:30.512Z,3.2
2023-05-15T01:34:36.574Z,3.3
2023-05-15T01:39:42.680Z,3.4
2023-05-15T01:44:48.954Z,3.4
2023-05-15T01:49:54.861Z,3.5
2023-05-15T01:55:00.900Z,3.6
2023-05-15T02:00:07.027Z,3.7
2023-05-15T02:05:13.322Z,3.7
2023-05-15T02:10:19.195Z,3.8
2023-05-15T02:15:25.533Z,3.7
2023-05-15T02:20:31.454Z,3.8
2023-05-15T02:25:37.537Z,3.8
2023-05-15T02:30:43.594Z,3.8
2023-05-15T02:35:49.705Z,3.9
2023-05-15T02:40:56.012Z,3.8
2023-05-15T02:46:01.941Z,3.8
2023-05-15T02:51:07.933Z,3.9
2023-05-15T02:56:14.081Z,3.9
2023-05-15T03:01:20.296Z,3.9
2023-05-15T03:06:26.234Z,3.9
2023-05-15T03:11:32.350Z,3.9
2023-05-15T03:16:38.435Z,3.8
2023-05-15T03:21:44.553Z,3.8
2023-05-15T03:26:50.646Z,3.9
2023-05-15T03:31:56.719Z,3.9
2023-05-15T03:37:02.929Z,3.9
2023-05-15T03:42:08.929Z,3.8
2023-05-15T03:47:14.983Z,3.8
2023-05-15T03:52:21.105Z,3.8
2023-05-15T03:57:27.185Z,3.8
2023-05-15T04:02:33.363Z,3.7
2023-05-15T04:07:39.416Z,3.5
2023-05-15T04:12:45.490Z,3.4
2023-05-15T04:17:51.572Z,3.3
2023-05-15T04:22:57.634Z,3.4
2023-05-15T04:28:03.983Z,3.5
2023-05-15T04:33:09.843Z,3.5
2023-05-15T04:38:15.928Z,3.5
2023-05-15T04:43:22.019Z,3.6
2023-05-15T04:48:28.098Z,3.8
2023-05-15T04:53:34.236Z,3.8
2023-05-15T04:58:40.275Z,3.9
2023-05-15T05:03:46.437Z,4
2023-05-15T05:08:52.504Z,4.2
2023-05-15T05:13:58.564Z,4.4
2023-05-15T05:19:04.712Z,4.5
2023-05-15T05:24:10.757Z,4.5
2023-05-15T05:29:16.876Z,4.5
2023-05-15T05:34:22.992Z,4.5
2023-05-15T05:39:29.066Z,4.5
2023-05-15T05:44:35.366Z,4.8
2023-05-15T05:49:41.216Z,4.7
2023-05-15T05:54:47.336Z,4.8
2023-05-15T05:59:53.414Z,4.8
2023-05-15T06:04:59.510Z,4.9
2023-05-15T06:10:05.606Z,5
2023-05-15T06:15:11.698Z,5
2023-05-15T06:20:17.803Z,5.2
2023-05-15T06:25:23.890Z,5.3
2023-05-15T06:30:29.992Z,5.5
2023-05-15T06:35:36.086Z,5.6
2023-05-15T06:40:42.189Z,5.9
2023-05-15T06:45:48.406Z,6
2023-05-15T06:50:54.361Z,5.6
2023-05-15T06:56:00.471Z,5.7
2023-05-15T07:01:06.803Z,5.6
2023-05-15T07:06:12.695Z,5.7
2023-05-15T07:11:18.730Z,6.1
2023-05-15T07:16:24.833Z,6.3
2023-05-15T07:21:30.928Z,6.4
2023-05-15T07:26:43.842Z,6.8
2023-05-15T07:31:43.154Z,7.2
2023-05-15T07:36:49.214Z,7.1
2023-05-15T07:41:55.307Z,8.1
2023-05-15T07:47:01.696Z,10.4
2023-05-15T07:52:07.509Z,11.3
2023-05-15T07:57:13.602Z,10.8
2023-05-15T08:02:19.852Z,9
2023-05-15T08:07:25.812Z,10.4
2023-05-15T08:12:31.909Z,12
2023-05-15T08:17:37.985Z,12.1
2023-05-15T08:22:44.086Z,10.3
2023-05-15T08:27:50.178Z,9.1
2023-05-15T08:32:57.321Z,10.1
2023-05-15T08:38:02.618Z,12
2023-05-15T08:43:08.446Z,10.1
2023-05-15T08:48:14.651Z,8.8
2023-05-15T08:53:20.645Z,7.4
2023-05-15T08:58:28.517Z,6.5
2023-05-15T09:03:33.058Z,6.4
2023-05-15T09:08:38.915Z,6.2
2023-05-15T09:13:45.028Z,6.6
2023-05-15T09:18:51.158Z,6.8
2023-05-15T09:23:57.316Z,7
2023-05-15T09:34:09.394Z,8.2
2023-05-15T09:39:15.508Z,9.2
2023-05-15T09:44:22.042Z,9.3
2023-05-15T09:49:27.671Z,8.8
2023-05-15T09:54:33.763Z,9
2023-05-15T09:59:39.862Z,9.7
2023-05-15T10:04:45.998Z,9.9
2023-05-15T10:09:52.043Z,10.8
2023-05-15T10:14:58.265Z,10.2
2023-05-15T10:20:05.258Z,10.1
2023-05-15T10:25:10.339Z,9.2
2023-05-15T10:30:16.422Z,9.3
2023-05-15T10:35:22.576Z,9.2
2023-05-15T10:40:28.846Z,9.3
2023-05-15T10:45:34.726Z,9.6
2023-05-15T10:50:40.806Z,9.8
2023-05-15T10:55:48.059Z,10.4
2023-05-15T11:00:53.090Z,11.2
2023-05-15T11:05:59.201Z,11.1
2023-05-15T11:11:05.186Z,11.9
2023-05-15T11:16:12.096Z,11.2
2023-05-15T11:21:17.616Z,10.4
2023-05-15T11:26:23.576Z,10.2
2023-05-15T11:31:29.657Z,10.4
2023-05-15T11:36:36.388Z,9.9
2023-05-15T11:41:42.745Z,10.3
2023-05-15T11:46:47.853Z,10.3
2023-05-15T11:51:53.936Z,9.7
2023-05-15T11:57:00.120Z,9.7
2023-05-15T12:02:06.278Z,10.3
2023-05-15T12:07:12.233Z,10.6
2023-05-15T12:12:19.553Z,10.2
2023-05-15T12:17:24.472Z,10.3
2023-05-15T12:22:30.676Z,10
2023-05-15T12:27:36.607Z,10.2
2023-05-15T12:32:42.762Z,10.2
2023-05-15T12:37:48.800Z,10.4
2023-05-15T12:42:55.027Z,11.6
2023-05-15T12:48:01.061Z,11.6
2023-05-15T12:53:07.092Z,11.5
2023-05-15T12:58:13.191Z,10.4
2023-05-15T13:03:19.345Z,11
2023-05-15T13:08:25.370Z,11.2
2023-05-15T13:13:31.458Z,10.1
2023-05-15T13:18:37.581Z,9.6
2023-05-15T13:23:43.675Z,10.4
2023-05-15T13:28:49.729Z,10.3
2023-05-15T13:33:55.850Z,11
2023-05-15T13:39:01.959Z,11.1
2023-05-15T13:44:08.018Z,10.8
2023-05-15T13:49:14.125Z,10.7
2023-05-15T13:54:20.265Z,9.8
2023-05-15T13:59:26.343Z,9.7
2023-05-15T14:04:32.407Z,10.4
2023-05-15T14:09:38.578Z,11
2023-05-15T14:14:44.615Z,11.4
2023-05-15T14:19:50.806Z,11.4
2023-05-15T14:24:56.808Z,11.8
2023-05-15T14:30:03.045Z,11.7
2023-05-15T14:35:08.954Z,11.3
2023-05-15T14:40:15.106Z,11.1
2023-05-15T14:45:21.174Z,11.8
2023-05-15T14:50:27.395Z,11.8
2023-05-15T14:55:33.338Z,11.7
2023-05-15T15:00:39.461Z,11.6
2023-05-15T15:05:45.547Z,11.6
2023-05-15T15:10:51.635Z,11.5
2023-05-15T15:15:57.736Z,11.4
2023-05-15T15:21:03.832Z,11.3
2023-05-15T15:26:09.922Z,11.2
2023-05-15T15:31:16.046Z,10.9
2023-05-15T15:36:22.099Z,10.6
2023-05-15T15:41:28.202Z,10.4
2023-05-15T15:46:34.311Z,10.5
2023-05-15T15:51:40.414Z,10.6
2023-05-15T15:56:46.533Z,11
2023-05-15T16:01:52.649Z,10.8
2023-05-15T16:06:58.804Z,10.2
2023-05-15T16:12:04.790Z,10.1
2023-05-15T16:17:10.909Z,10
2023-05-15T16:22:17.100Z,10
2023-05-15T16:27:23.050Z,10
2023-05-15T16:32:29.191Z,10.1
2023-05-15T16:37:35.241Z,9.8
2023-05-15T16:42:41.426Z,10
2023-05-15T16:47:47.475Z,9.7
2023-05-15T16:52:53.802Z,9.3
2023-05-15T16:58:05.265Z,9.1
2023-05-15T17:03:11.445Z,8.8
2023-05-15T17:08:17.443Z,8.7
2023-05-15T17:13:24.312Z,8.6
2023-05-15T17:18:29.635Z,8.5
2023-05-15T17:23:35.746Z,8.6
2023-05-15T17:28:42.843Z,8.6
2023-05-15T17:33:48.056Z,8.4
2023-05-15T17:38:54.156Z,8.1
2023-05-15T17:44:00.149Z,8
2023-05-15T17:49:06.187Z,7.9
2023-05-15T17:54:12.319Z,7.7
2023-05-15T17:59:18.375Z,7.6
2023-05-15T18:04:24.705Z,7.6
2023-05-15T18:09:30.573Z,7.6
2023-05-15T18:14:37.162Z,7.4
2023-05-15T18:19:42.790Z,7.3
2023-05-15T18:24:48.852Z,7.1
2023-05-15T18:29:55.066Z,7
2023-05-15T18:35:01.292Z,6.8
2023-05-15T18:40:07.279Z,6.7
2023-05-15T18:45:13.228Z,6.6
2023-05-15T18:50:19.342Z,6.4
2023-05-15T18:55:25.574Z,6.5
2023-05-15T19:00:37.729Z,6.7
2023-05-15T19:05:37.670Z,6.6
2023-05-15T19:10:43.711Z,6.4
2023-05-15T19:15:50.016Z,6.3
2023-05-15T19:20:55.888Z,6.4
2023-05-15T19:26:02.007Z,6.3
2023-05-15T19:31:11.842Z,6.3
2023-05-15T19:36:14.200Z,6.2
2023-05-15T19:41:20.267Z,6.2
2023-05-15T19:46:26.383Z,6.2
2023-05-15T19:51:32.486Z,6.2
2023-05-15T19:56:38.545Z,6.2
2023-05-15T20:01:44.677Z,6.1
2023-05-15T20:06:50.762Z,6.2
2023-05-15T20:11:56.899Z,6.2
2023-05-15T20:17:02.961Z,6.3
2023-05-15T20:22:09.028Z,6.2
2023-05-15T20:27:15.116Z,6.2
2023-05-15T20:32:21.477Z,6.1
2023-05-15T20:37:27.316Z,6
2023-05-15T20:42:33.392Z,6.1
2023-05-15T20:47:39.499Z,6.1
2023-05-15T20:52:45.581Z,6
2023-05-15T20:57:51.692Z,6
2023-05-15T21:02:57.919Z,5.9
2023-05-15T21:08:03.888Z,5.7
2023-05-15T21:13:09.969Z,5.5
2023-05-15T21:18:17.057Z,5.3
2023-05-15T21:23:22.168Z,5.1
2023-05-15T21:28:28.244Z,4.8
2023-05-15T21:33:34.350Z,4.7
2023-05-15T21:38:40.479Z,4.6
2023-05-15T21:43:46.763Z,4.6
2023-05-15T21:48:52.658Z,4.7
2023-05-15T21:53:58.732Z,4.9
2023-05-15T21:59:04.848Z,4.9
2023-05-15T22:04:10.987Z,4.9
2023-05-15T22:09:18.004Z,4.9
2023-05-15T22:14:23.161Z,5
2023-05-15T22:19:32.939Z,5.1
2023-05-15T22:24:35.309Z,5
2023-05-15T22:29:41.424Z,5.1
2023-05-15T22:34:47.496Z,5.2
2023-05-15T22:39:53.831Z,5.1
2023-05-15T22:44:59.698Z,5.2
2023-05-15T22:50:05.782Z,5.2
2023-05-15T22:55:11.880Z,5.2
2023-05-15T23:00:17.987Z,5.2
2023-05-15T23:05:25.078Z,5.2
2023-05-15T23:10:30.443Z,5.2
2023-05-15T23:15:36.340Z,5.1
2023-05-15T23:20:42.372Z,5.1
2023-05-15T23:25:48.437Z,5.1
2023-05-15T23:30:54.560Z,5
2023-05-15T23:36:00.632Z,5
2023-05-15T23:41:06.715Z,4.9
2023-05-15T23:46:13.853Z,4.9
2023-05-15T23:51:18.895Z,4.9
2023-05-15T23:56:25.036Z,4.7
